sensor_id;sensor_type;location;lat;lon;timestamp;P1;durP1;ratioP1;P2;durP2;ratioP2
45676;SDS011;31390;51.186;6.830;2023-04-06T00:00:07;17.67;;;14.07;;
45676;SDS011;31390;51.186;6.830;2023-04-06T00:02:35;13.97;;;12.57;;
45676;SDS011;31390;51.186;6.830;2023-04-06T00:05:02;15.83;;;13.37;;
45676;SDS011;31390;51.186;6.830;2023-04-06T00:07:29;16.73;;;14.67;;
45676;SDS011;31390;51.186;6.830;2023-04-06T00:09:56;15.70;;;13.17;;
45676;SDS011;31390;51.186;6.830;2023-04-06T00:12:23;15.73;;;13.93;;
45676;SDS011;31390;51.186;6.830;2023-04-06T00:14:49;19.47;;;14.97;;
45676;SDS011;31390;51.186;6.830;2023-04-06T00:17:16;17.67;;;14.70;;
45676;SDS011;31390;51.186;6.830;2023-04-06T00:19:43;19.77;;;15.90;;
45676;SDS011;31390;51.186;6.830;2023-04-06T00:22:09;18.20;;;14.80;;
45676;SDS011;31390;51.186;6.830;2023-04-06T00:24:36;17.13;;;14.57;;
45676;SDS011;31390;51.186;6.830;2023-04-06T00:27:02;19.57;;;16.07;;
45676;SDS011;31390;51.186;6.830;2023-04-06T00:29:29;20.87;;;17.30;;
45676;SDS011;31390;51.186;6.830;2023-04-06T00:31:56;23.80;;;17.13;;
45676;SDS011;31390;51.186;6.830;2023-04-06T00:34:22;21.67;;;16.57;;
45676;SDS011;31390;51.186;6.830;2023-04-06T00:36:49;19.80;;;16.77;;
45676;SDS011;31390;51.186;6.830;2023-04-06T00:39:15;19.67;;;17.57;;
45676;SDS011;31390;51.186;6.830;2023-04-06T00:41:45;20.00;;;16.77;;
45676;SDS011;31390;51.186;6.830;2023-04-06T00:44:12;19.33;;;17.13;;
45676;SDS011;31390;51.186;6.830;2023-04-06T00:46:39;21.13;;;18.80;;
45676;SDS011;31390;51.186;6.830;2023-04-06T00:49:05;20.17;;;18.07;;
45676;SDS011;31390;51.186;6.830;2023-04-06T00:51:33;19.73;;;17.60;;
45676;SDS011;31390;51.186;6.830;2023-04-06T00:53:59;30.63;;;19.53;;
45676;SDS011;31390;51.186;6.830;2023-04-06T00:56:29;20.97;;;18.33;;
45676;SDS011;31390;51.186;6.830;2023-04-06T00:58:56;20.13;;;17.53;;
45676;SDS011;31390;51.186;6.830;2023-04-06T01:01:23;19.27;;;17.23;;
45676;SDS011;31390;51.186;6.830;2023-04-06T01:03:51;22.63;;;18.00;;
45676;SDS011;31390;51.186;6.830;2023-04-06T01:06:19;22.60;;;19.17;;
45676;SDS011;31390;51.186;6.830;2023-04-06T01:08:55;20.37;;;18.10;;
45676;SDS011;31390;51.186;6.830;2023-04-06T01:11:24;19.53;;;16.77;;
45676;SDS011;31390;51.186;6.830;2023-04-06T01:13:51;22.57;;;18.23;;
45676;SDS011;31390;51.186;6.830;2023-04-06T01:16:35;23.23;;;18.27;;
45676;SDS011;31390;51.186;6.830;2023-04-06T01:19:12;24.10;;;18.83;;
45676;SDS011;31390;51.186;6.830;2023-04-06T01:21:43;21.83;;;18.43;;
45676;SDS011;31390;51.186;6.830;2023-04-06T01:24:12;23.40;;;18.17;;
45676;SDS011;31390;51.186;6.830;2023-04-06T01:27:02;21.37;;;18.60;;
45676;SDS011;31390;51.186;6.830;2023-04-06T01:29:49;19.37;;;17.10;;
45676;SDS011;31390;51.186;6.830;2023-04-06T01:32:26;21.90;;;18.40;;
45676;SDS011;31390;51.186;6.830;2023-04-06T01:34:53;22.27;;;17.67;;
45676;SDS011;31390;51.186;6.830;2023-04-06T01:37:21;19.80;;;17.67;;
45676;SDS011;31390;51.186;6.830;2023-04-06T01:39:48;18.47;;;16.47;;
45676;SDS011;31390;51.186;6.830;2023-04-06T01:42:23;19.33;;;17.33;;
45676;SDS011;31390;51.186;6.830;2023-04-06T01:44:50;19.63;;;17.63;;
45676;SDS011;31390;51.186;6.830;2023-04-06T01:47:17;18.93;;;16.70;;
45676;SDS011;31390;51.186;6.830;2023-04-06T01:49:44;19.03;;;16.90;;
45676;SDS011;31390;51.186;6.830;2023-04-06T01:52:12;19.13;;;17.13;;
45676;SDS011;31390;51.186;6.830;2023-04-06T01:54:41;20.97;;;18.87;;
45676;SDS011;31390;51.186;6.830;2023-04-06T01:57:11;17.67;;;15.80;;
45676;SDS011;31390;51.186;6.830;2023-04-06T01:59:52;20.40;;;18.33;;
45676;SDS011;31390;51.186;6.830;2023-04-06T02:02:24;21.30;;;19.07;;
45676;SDS011;31390;51.186;6.830;2023-04-06T02:04:57;21.33;;;19.13;;
45676;SDS011;31390;51.186;6.830;2023-04-06T02:07:24;28.40;;;20.57;;
45676;SDS011;31390;51.186;6.830;2023-04-06T02:09:53;28.27;;;19.53;;
45676;SDS011;31390;51.186;6.830;2023-04-06T02:12:25;22.13;;;19.93;;
45676;SDS011;31390;51.186;6.830;2023-04-06T02:14:51;23.50;;;19.07;;
45676;SDS011;31390;51.186;6.830;2023-04-06T02:17:19;21.77;;;19.47;;
45676;SDS011;31390;51.186;6.830;2023-04-06T02:19:45;20.53;;;18.33;;
45676;SDS011;31390;51.186;6.830;2023-04-06T02:22:12;23.57;;;18.83;;
45676;SDS011;31390;51.186;6.830;2023-04-06T02:24:38;21.70;;;19.40;;
45676;SDS011;31390;51.186;6.830;2023-04-06T02:27:05;21.53;;;19.33;;
45676;SDS011;31390;51.186;6.830;2023-04-06T02:29:32;21.50;;;18.60;;
45676;SDS011;31390;51.186;6.830;2023-04-06T02:31:59;22.03;;;18.70;;
45676;SDS011;31390;51.186;6.830;2023-04-06T02:34:29;22.60;;;20.20;;
45676;SDS011;31390;51.186;6.830;2023-04-06T02:36:56;21.37;;;18.63;;
45676;SDS011;31390;51.186;6.830;2023-04-06T02:39:23;17.53;;;15.83;;
45676;SDS011;31390;51.186;6.830;2023-04-06T02:41:50;19.80;;;17.80;;
45676;SDS011;31390;51.186;6.830;2023-04-06T02:44:20;20.20;;;17.37;;
45676;SDS011;31390;51.186;6.830;2023-04-06T02:46:47;19.30;;;17.30;;
45676;SDS011;31390;51.186;6.830;2023-04-06T02:49:13;18.30;;;16.37;;
45676;SDS011;31390;51.186;6.830;2023-04-06T02:51:40;19.93;;;17.83;;
45676;SDS011;31390;51.186;6.830;2023-04-06T02:54:18;20.07;;;17.97;;
45676;SDS011;31390;51.186;6.830;2023-04-06T02:56:44;21.30;;;18.87;;
45676;SDS011;31390;51.186;6.830;2023-04-06T02:59:11;25.27;;;18.40;;
45676;SDS011;31390;51.186;6.830;2023-04-06T03:01:43;18.97;;;17.07;;
45676;SDS011;31390;51.186;6.830;2023-04-06T03:04:10;18.00;;;16.17;;
45676;SDS011;31390;51.186;6.830;2023-04-06T03:06:37;21.83;;;18.47;;
45676;SDS011;31390;51.186;6.830;2023-04-06T03:09:14;20.67;;;18.47;;
45676;SDS011;31390;51.186;6.830;2023-04-06T03:11:42;19.20;;;16.33;;
45676;SDS011;31390;51.186;6.830;2023-04-06T03:14:09;19.47;;;17.37;;
45676;SDS011;31390;51.186;6.830;2023-04-06T03:16:36;19.10;;;16.73;;
45676;SDS011;31390;51.186;6.830;2023-04-06T03:19:03;19.80;;;17.80;;
45676;SDS011;31390;51.186;6.830;2023-04-06T03:21:32;19.13;;;17.13;;
45676;SDS011;31390;51.186;6.830;2023-04-06T03:23:59;21.57;;;19.27;;
45676;SDS011;31390;51.186;6.830;2023-04-06T03:26:26;20.53;;;17.80;;
45676;SDS011;31390;51.186;6.830;2023-04-06T03:28:52;20.37;;;17.70;;
45676;SDS011;31390;51.186;6.830;2023-04-06T03:31:23;18.10;;;16.20;;
45676;SDS011;31390;51.186;6.830;2023-04-06T03:33:50;19.43;;;17.33;;
45676;SDS011;31390;51.186;6.830;2023-04-06T03:36:23;19.43;;;17.43;;
45676;SDS011;31390;51.186;6.830;2023-04-06T03:38:53;19.30;;;16.97;;
45676;SDS011;31390;51.186;6.830;2023-04-06T03:41:19;19.70;;;17.63;;
45676;SDS011;31390;51.186;6.830;2023-04-06T03:43:57;25.20;;;18.40;;
45676;SDS011;31390;51.186;6.830;2023-04-06T03:46:23;23.63;;;18.10;;
45676;SDS011;31390;51.186;6.830;2023-04-06T03:48:53;20.43;;;18.20;;
45676;SDS011;31390;51.186;6.830;2023-04-06T03:51:21;19.17;;;17.17;;
45676;SDS011;31390;51.186;6.830;2023-04-06T03:53:47;19.70;;;17.00;;
45676;SDS011;31390;51.186;6.830;2023-04-06T03:56:14;19.37;;;17.27;;
45676;SDS011;31390;51.186;6.830;2023-04-06T03:58:41;23.93;;;19.10;;
45676;SDS011;31390;51.186;6.830;2023-04-06T04:01:07;20.13;;;17.20;;
45676;SDS011;31390;51.186;6.830;2023-04-06T04:03:34;18.23;;;16.33;;
45676;SDS011;31390;51.186;6.830;2023-04-06T04:06:00;19.93;;;17.03;;
45676;SDS011;31390;51.186;6.830;2023-04-06T04:08:27;22.33;;;16.73;;
45676;SDS011;31390;51.186;6.830;2023-04-06T04:10:54;19.97;;;17.77;;
45676;SDS011;31390;51.186;6.830;2023-04-06T04:13:21;23.47;;;19.87;;
45676;SDS011;31390;51.186;6.830;2023-04-06T04:15:50;20.93;;;18.73;;
45676;SDS011;31390;51.186;6.830;2023-04-06T04:18:16;22.83;;;19.03;;
45676;SDS011;31390;51.186;6.830;2023-04-06T04:20:43;24.30;;;20.30;;
45676;SDS011;31390;51.186;6.830;2023-04-06T04:23:11;21.70;;;19.13;;
45676;SDS011;31390;51.186;6.830;2023-04-06T04:25:37;21.50;;;17.83;;
45676;SDS011;31390;51.186;6.830;2023-04-06T04:28:04;18.63;;;16.23;;
45676;SDS011;31390;51.186;6.830;2023-04-06T04:30:31;22.17;;;18.10;;
45676;SDS011;31390;51.186;6.830;2023-04-06T04:32:58;20.03;;;16.30;;
45676;SDS011;31390;51.186;6.830;2023-04-06T04:35:24;25.03;;;16.00;;
45676;SDS011;31390;51.186;6.830;2023-04-06T04:37:51;18.60;;;16.63;;
45676;SDS011;31390;51.186;6.830;2023-04-06T04:40:18;20.10;;;16.67;;
45676;SDS011;31390;51.186;6.830;2023-04-06T04:43:02;16.93;;;15.13;;
45676;SDS011;31390;51.186;6.830;2023-04-06T04:45:32;15.73;;;14.03;;
45676;SDS011;31390;51.186;6.830;2023-04-06T04:48:05;16.73;;;14.93;;
45676;SDS011;31390;51.186;6.830;2023-04-06T04:50:46;20.87;;;16.17;;
45676;SDS011;31390;51.186;6.830;2023-04-06T04:53:14;18.10;;;15.40;;
45676;SDS011;31390;51.186;6.830;2023-04-06T04:55:43;17.00;;;15.23;;
45676;SDS011;31390;51.186;6.830;2023-04-06T04:58:11;18.03;;;16.17;;
45676;SDS011;31390;51.186;6.830;2023-04-06T05:00:49;18.77;;;16.63;;
45676;SDS011;31390;51.186;6.830;2023-04-06T05:03:18;16.27;;;14.53;;
45676;SDS011;31390;51.186;6.830;2023-04-06T05:05:53;17.60;;;15.90;;
45676;SDS011;31390;51.186;6.830;2023-04-06T05:08:23;19.87;;;15.47;;
45676;SDS011;31390;51.186;6.830;2023-04-06T05:10:50;17.13;;;15.33;;
45676;SDS011;31390;51.186;6.830;2023-04-06T05:13:18;18.47;;;14.83;;
45676;SDS011;31390;51.186;6.830;2023-04-06T05:15:46;19.07;;;15.13;;
45676;SDS011;31390;51.186;6.830;2023-04-06T05:18:23;19.20;;;15.67;;
45676;SDS011;31390;51.186;6.830;2023-04-06T05:20:50;16.00;;;14.40;;
45676;SDS011;31390;51.186;6.830;2023-04-06T05:23:22;18.47;;;15.77;;
45676;SDS011;31390;51.186;6.830;2023-04-06T05:25:50;15.57;;;13.97;;
45676;SDS011;31390;51.186;6.830;2023-04-06T05:28:20;16.47;;;14.67;;
45676;SDS011;31390;51.186;6.830;2023-04-06T05:30:47;17.50;;;15.00;;
45676;SDS011;31390;51.186;6.830;2023-04-06T05:33:15;17.30;;;13.00;;
45676;SDS011;31390;51.186;6.830;2023-04-06T05:35:59;15.83;;;13.23;;
45676;SDS011;31390;51.186;6.830;2023-04-06T05:38:27;14.37;;;12.87;;
45676;SDS011;31390;51.186;6.830;2023-04-06T05:40:57;15.33;;;12.83;;
45676;SDS011;31390;51.186;6.830;2023-04-06T05:43:28;16.17;;;14.13;;
45676;SDS011;31390;51.186;6.830;2023-04-06T05:45:56;21.30;;;12.47;;
45676;SDS011;31390;51.186;6.830;2023-04-06T05:48:23;17.77;;;13.57;;
45676;SDS011;31390;51.186;6.830;2023-04-06T05:50:50;16.67;;;14.53;;
45676;SDS011;31390;51.186;6.830;2023-04-06T05:53:20;21.00;;;15.33;;
45676;SDS011;31390;51.186;6.830;2023-04-06T05:55:53;18.80;;;12.40;;
45676;SDS011;31390;51.186;6.830;2023-04-06T05:58:20;13.87;;;12.47;;
45676;SDS011;31390;51.186;6.830;2023-04-06T06:00:51;19.23;;;13.20;;
45676;SDS011;31390;51.186;6.830;2023-04-06T06:03:22;16.53;;;12.10;;
45676;SDS011;31390;51.186;6.830;2023-04-06T06:05:52;16.87;;;13.17;;
45676;SDS011;31390;51.186;6.830;2023-04-06T06:08:27;17.10;;;13.43;;
45676;SDS011;31390;51.186;6.830;2023-04-06T06:10:55;14.67;;;13.17;;
45676;SDS011;31390;51.186;6.830;2023-04-06T06:13:23;13.67;;;11.67;;
45676;SDS011;31390;51.186;6.830;2023-04-06T06:15:50;13.27;;;11.93;;
45676;SDS011;31390;51.186;6.830;2023-04-06T06:18:19;13.53;;;10.93;;
45676;SDS011;31390;51.186;6.830;2023-04-06T06:20:49;13.10;;;11.70;;
45676;SDS011;31390;51.186;6.830;2023-04-06T06:23:16;11.97;;;10.63;;
45676;SDS011;31390;51.186;6.830;2023-04-06T06:25:43;12.73;;;10.00;;
45676;SDS011;31390;51.186;6.830;2023-04-06T06:28:10;11.93;;;9.93;;
45676;SDS011;31390;51.186;6.830;2023-04-06T06:30:37;11.80;;;10.53;;
45676;SDS011;31390;51.186;6.830;2023-04-06T06:33:08;12.00;;;10.27;;
45676;SDS011;31390;51.186;6.830;2023-04-06T06:35:35;10.50;;;9.23;;
45676;SDS011;31390;51.186;6.830;2023-04-06T06:38:03;11.43;;;9.73;;
45676;SDS011;31390;51.186;6.830;2023-04-06T06:40:31;11.93;;;10.17;;
45676;SDS011;31390;51.186;6.830;2023-04-06T06:42:57;12.23;;;10.93;;
45676;SDS011;31390;51.186;6.830;2023-04-06T06:45:30;14.97;;;11.40;;
45676;SDS011;31390;51.186;6.830;2023-04-06T06:47:57;12.57;;;10.87;;
45676;SDS011;31390;51.186;6.830;2023-04-06T06:50:24;13.17;;;10.17;;
45676;SDS011;31390;51.186;6.830;2023-04-06T06:52:50;12.70;;;10.13;;
45676;SDS011;31390;51.186;6.830;2023-04-06T06:55:17;11.73;;;9.90;;
45676;SDS011;31390;51.186;6.830;2023-04-06T06:57:45;12.27;;;10.63;;
45676;SDS011;31390;51.186;6.830;2023-04-06T07:00:15;14.83;;;11.10;;
45676;SDS011;31390;51.186;6.830;2023-04-06T07:02:44;14.60;;;10.40;;
45676;SDS011;31390;51.186;6.830;2023-04-06T07:05:11;14.33;;;11.40;;
45676;SDS011;31390;51.186;6.830;2023-04-06T07:07:53;12.70;;;9.67;;
45676;SDS011;31390;51.186;6.830;2023-04-06T07:10:19;10.90;;;9.80;;
45676;SDS011;31390;51.186;6.830;2023-04-06T07:12:46;11.83;;;9.93;;
45676;SDS011;31390;51.186;6.830;2023-04-06T07:15:12;13.90;;;8.80;;
45676;SDS011;31390;51.186;6.830;2023-04-06T07:17:39;11.40;;;9.40;;
45676;SDS011;31390;51.186;6.830;2023-04-06T07:20:08;12.60;;;9.70;;
45676;SDS011;31390;51.186;6.830;2023-04-06T07:22:35;14.97;;;10.60;;
45676;SDS011;31390;51.186;6.830;2023-04-06T07:25:01;12.57;;;9.87;;
45676;SDS011;31390;51.186;6.830;2023-04-06T07:27:28;12.20;;;10.83;;
45676;SDS011;31390;51.186;6.830;2023-04-06T07:29:55;13.27;;;10.00;;
45676;SDS011;31390;51.186;6.830;2023-04-06T07:32:22;11.40;;;9.73;;
45676;SDS011;31390;51.186;6.830;2023-04-06T07:34:49;12.23;;;9.67;;
45676;SDS011;31390;51.186;6.830;2023-04-06T07:37:15;11.80;;;8.60;;
45676;SDS011;31390;51.186;6.830;2023-04-06T07:39:42;16.13;;;10.00;;
45676;SDS011;31390;51.186;6.830;2023-04-06T07:42:10;10.85;;;9.63;;
45676;SDS011;31390;51.186;6.830;2023-04-06T07:44:36;10.77;;;9.10;;
45676;SDS011;31390;51.186;6.830;2023-04-06T07:47:04;10.90;;;9.70;;
45676;SDS011;31390;51.186;6.830;2023-04-06T07:49:30;17.27;;;9.60;;
45676;SDS011;31390;51.186;6.830;2023-04-06T07:52:00;13.23;;;9.20;;
45676;SDS011;31390;51.186;6.830;2023-04-06T07:54:29;10.45;;;9.35;;
45676;SDS011;31390;51.186;6.830;2023-04-06T07:56:56;12.00;;;9.43;;
45676;SDS011;31390;51.186;6.830;2023-04-06T07:59:22;11.60;;;8.65;;
45676;SDS011;31390;51.186;6.830;2023-04-06T08:01:49;10.70;;;8.63;;
45676;SDS011;31390;51.186;6.830;2023-04-06T08:04:15;11.40;;;9.18;;
45676;SDS011;31390;51.186;6.830;2023-04-06T08:06:43;9.82;;;8.77;;
45676;SDS011;31390;51.186;6.830;2023-04-06T08:09:10;10.88;;;9.77;;
45676;SDS011;31390;51.186;6.830;2023-04-06T08:11:36;10.48;;;8.80;;
45676;SDS011;31390;51.186;6.830;2023-04-06T08:14:03;12.77;;;9.77;;
45676;SDS011;31390;51.186;6.830;2023-04-06T08:16:29;10.48;;;8.90;;
45676;SDS011;31390;51.186;6.830;2023-04-06T08:18:56;11.52;;;9.80;;
45676;SDS011;31390;51.186;6.830;2023-04-06T08:21:23;10.55;;;8.93;;
45676;SDS011;31390;51.186;6.830;2023-04-06T08:23:49;12.90;;;9.25;;
45676;SDS011;31390;51.186;6.830;2023-04-06T08:26:16;10.25;;;9.13;;
45676;SDS011;31390;51.186;6.830;2023-04-06T08:28:43;12.40;;;9.25;;
45676;SDS011;31390;51.186;6.830;2023-04-06T08:31:12;11.02;;;9.32;;
45676;SDS011;31390;51.186;6.830;2023-04-06T08:33:38;12.38;;;10.05;;
45676;SDS011;31390;51.186;6.830;2023-04-06T08:36:09;13.48;;;10.07;;
45676;SDS011;31390;51.186;6.830;2023-04-06T08:38:36;12.07;;;10.15;;
45676;SDS011;31390;51.186;6.830;2023-04-06T08:41:20;11.70;;;10.23;;
45676;SDS011;31390;51.186;6.830;2023-04-06T08:43:57;12.63;;;10.63;;
45676;SDS011;31390;51.186;6.830;2023-04-06T08:46:24;13.23;;;10.57;;
45676;SDS011;31390;51.186;6.830;2023-04-06T08:49:00;14.32;;;10.57;;
45676;SDS011;31390;51.186;6.830;2023-04-06T08:51:28;13.23;;;11.65;;
45676;SDS011;31390;51.186;6.830;2023-04-06T08:53:55;13.77;;;11.57;;
45676;SDS011;31390;51.186;6.830;2023-04-06T08:56:22;13.43;;;11.85;;
45676;SDS011;31390;51.186;6.830;2023-04-06T08:58:49;14.63;;;12.20;;
45676;SDS011;31390;51.186;6.830;2023-04-06T09:01:21;16.58;;;12.13;;
45676;SDS011;31390;51.186;6.830;2023-04-06T09:03:48;16.38;;;12.20;;
45676;SDS011;31390;51.186;6.830;2023-04-06T09:06:15;13.13;;;11.27;;
45676;SDS011;31390;51.186;6.830;2023-04-06T09:08:42;13.77;;;11.20;;
45676;SDS011;31390;51.186;6.830;2023-04-06T09:11:09;13.85;;;12.35;;
45676;SDS011;31390;51.186;6.830;2023-04-06T09:13:48;15.23;;;11.70;;
45676;SDS011;31390;51.186;6.830;2023-04-06T09:16:15;17.58;;;12.23;;
45676;SDS011;31390;51.186;6.830;2023-04-06T09:18:42;13.18;;;11.60;;
45676;SDS011;31390;51.186;6.830;2023-04-06T09:21:08;14.63;;;11.52;;
45676;SDS011;31390;51.186;6.830;2023-04-06T09:23:35;14.65;;;11.15;;
45676;SDS011;31390;51.186;6.830;2023-04-06T09:26:16;15.38;;;11.90;;
45676;SDS011;31390;51.186;6.830;2023-04-06T09:28:52;16.85;;;12.10;;
45676;SDS011;31390;51.186;6.830;2023-04-06T09:31:26;14.82;;;11.18;;
45676;SDS011;31390;51.186;6.830;2023-04-06T09:33:53;15.95;;;12.68;;
45676;SDS011;31390;51.186;6.830;2023-04-06T09:36:20;15.10;;;12.43;;
45676;SDS011;31390;51.186;6.830;2023-04-06T09:38:56;16.52;;;12.48;;
45676;SDS011;31390;51.186;6.830;2023-04-06T09:41:33;17.70;;;13.15;;
45676;SDS011;31390;51.186;6.830;2023-04-06T09:46:30;15.48;;;11.55;;
45676;SDS011;31390;51.186;6.830;2023-04-06T09:49:09;16.42;;;12.25;;
45676;SDS011;31390;51.186;6.830;2023-04-06T09:51:40;14.75;;;12.25;;
45676;SDS011;31390;51.186;6.830;2023-04-06T09:54:07;16.40;;;13.10;;
45676;SDS011;31390;51.186;6.830;2023-04-06T09:56:37;16.35;;;12.15;;
45676;SDS011;31390;51.186;6.830;2023-04-06T09:59:08;16.95;;;12.38;;
45676;SDS011;31390;51.186;6.830;2023-04-06T10:01:36;19.73;;;12.63;;
45676;SDS011;31390;51.186;6.830;2023-04-06T10:04:06;18.77;;;13.40;;
45676;SDS011;31390;51.186;6.830;2023-04-06T10:06:35;17.58;;;12.77;;
45676;SDS011;31390;51.186;6.830;2023-04-06T10:09:03;19.50;;;13.10;;
45676;SDS011;31390;51.186;6.830;2023-04-06T10:11:30;19.30;;;13.27;;
45676;SDS011;31390;51.186;6.830;2023-04-06T10:13:57;17.88;;;13.20;;
45676;SDS011;31390;51.186;6.830;2023-04-06T10:16:24;17.10;;;13.07;;
45676;SDS011;31390;51.186;6.830;2023-04-06T10:18:53;18.67;;;14.13;;
45676;SDS011;31390;51.186;6.830;2023-04-06T10:21:21;16.58;;;12.90;;
45676;SDS011;31390;51.186;6.830;2023-04-06T10:23:58;15.15;;;12.75;;
45676;SDS011;31390;51.186;6.830;2023-04-06T10:26:25;14.35;;;11.75;;
45676;SDS011;31390;51.186;6.830;2023-04-06T10:28:52;16.55;;;12.48;;
45676;SDS011;31390;51.186;6.830;2023-04-06T10:31:26;16.40;;;13.75;;
45676;SDS011;31390;51.186;6.830;2023-04-06T10:34:03;17.38;;;12.23;;
45676;SDS011;31390;51.186;6.830;2023-04-06T10:36:34;14.25;;;12.60;;
45676;SDS011;31390;51.186;6.830;2023-04-06T10:39:02;15.00;;;12.48;;
45676;SDS011;31390;51.186;6.830;2023-04-06T10:41:33;16.42;;;12.73;;
45676;SDS011;31390;51.186;6.830;2023-04-06T10:44:00;15.63;;;12.38;;
45676;SDS011;31390;51.186;6.830;2023-04-06T10:46:28;17.27;;;12.88;;
45676;SDS011;31390;51.186;6.830;2023-04-06T10:48:55;15.20;;;12.23;;
45676;SDS011;31390;51.186;6.830;2023-04-06T10:51:28;23.65;;;13.35;;
45676;SDS011;31390;51.186;6.830;2023-04-06T10:53:55;20.52;;;12.65;;
45676;SDS011;31390;51.186;6.830;2023-04-06T10:56:23;15.05;;;12.60;;
45676;SDS011;31390;51.186;6.830;2023-04-06T10:58:53;16.50;;;12.75;;
45676;SDS011;31390;51.186;6.830;2023-04-06T11:01:23;20.95;;;13.23;;
45676;SDS011;31390;51.186;6.830;2023-04-06T11:03:51;16.77;;;11.98;;
45676;SDS011;31390;51.186;6.830;2023-04-06T11:06:21;16.10;;;12.18;;
45676;SDS011;31390;51.186;6.830;2023-04-06T11:08:48;15.90;;;11.85;;
45676;SDS011;31390;51.186;6.830;2023-04-06T11:11:16;17.25;;;13.02;;
45676;SDS011;31390;51.186;6.830;2023-04-06T11:13:45;19.10;;;13.02;;
45676;SDS011;31390;51.186;6.830;2023-04-06T11:16:33;17.52;;;12.65;;
45676;SDS011;31390;51.186;6.830;2023-04-06T11:19:00;19.27;;;13.93;;
45676;SDS011;31390;51.186;6.830;2023-04-06T11:21:40;16.80;;;12.73;;
45676;SDS011;31390;51.186;6.830;2023-04-06T11:24:12;16.10;;;12.70;;
45676;SDS011;31390;51.186;6.830;2023-04-06T11:26:39;16.88;;;13.00;;
45676;SDS011;31390;51.186;6.830;2023-04-06T11:29:06;21.08;;;13.55;;
45676;SDS011;31390;51.186;6.830;2023-04-06T11:31:40;16.60;;;13.50;;
45676;SDS011;31390;51.186;6.830;2023-04-06T11:34:13;14.52;;;12.98;;
45676;SDS011;31390;51.186;6.830;2023-04-06T11:36:40;14.52;;;12.32;;
45676;SDS011;31390;51.186;6.830;2023-04-06T11:39:08;17.30;;;13.30;;
45676;SDS011;31390;51.186;6.830;2023-04-06T11:41:34;17.65;;;13.60;;
45676;SDS011;31390;51.186;6.830;2023-04-06T11:44:02;17.15;;;13.35;;
45676;SDS011;31390;51.186;6.830;2023-04-06T11:46:29;14.75;;;12.25;;
45676;SDS011;31390;51.186;6.830;2023-04-06T11:48:59;16.63;;;11.98;;
45676;SDS011;31390;51.186;6.830;2023-04-06T11:51:29;16.40;;;11.65;;
45676;SDS011;31390;51.186;6.830;2023-04-06T11:53:57;17.95;;;12.93;;
45676;SDS011;31390;51.186;6.830;2023-04-06T11:56:28;17.02;;;12.68;;
45676;SDS011;31390;51.186;6.830;2023-04-06T11:58:55;15.30;;;11.95;;
45676;SDS011;31390;51.186;6.830;2023-04-06T12:01:23;15.07;;;12.38;;
45676;SDS011;31390;51.186;6.830;2023-04-06T12:03:50;16.60;;;11.77;;
45676;SDS011;31390;51.186;6.830;2023-04-06T12:06:17;15.90;;;12.63;;
45676;SDS011;31390;51.186;6.830;2023-04-06T12:08:44;17.55;;;12.82;;
45676;SDS011;31390;51.186;6.830;2023-04-06T12:11:11;14.13;;;11.63;;
45676;SDS011;31390;51.186;6.830;2023-04-06T12:13:37;16.20;;;11.95;;
45676;SDS011;31390;51.186;6.830;2023-04-06T12:16:04;14.27;;;10.88;;
45676;SDS011;31390;51.186;6.830;2023-04-06T12:18:32;17.25;;;12.38;;
45676;SDS011;31390;51.186;6.830;2023-04-06T12:20:58;17.60;;;11.88;;
45676;SDS011;31390;51.186;6.830;2023-04-06T12:23:25;15.52;;;11.73;;
45676;SDS011;31390;51.186;6.830;2023-04-06T12:25:51;15.70;;;12.23;;
45676;SDS011;31390;51.186;6.830;2023-04-06T12:28:18;15.63;;;11.95;;
45676;SDS011;31390;51.186;6.830;2023-04-06T12:30:46;15.35;;;11.95;;
45676;SDS011;31390;51.186;6.830;2023-04-06T12:33:13;14.63;;;11.75;;
45676;SDS011;31390;51.186;6.830;2023-04-06T12:35:40;15.38;;;12.35;;
45676;SDS011;31390;51.186;6.830;2023-04-06T12:38:07;22.95;;;11.45;;
45676;SDS011;31390;51.186;6.830;2023-04-06T12:40:37;15.55;;;10.93;;
45676;SDS011;31390;51.186;6.830;2023-04-06T12:43:04;14.75;;;10.02;;
45676;SDS011;31390;51.186;6.830;2023-04-06T12:45:31;12.75;;;10.15;;
45676;SDS011;31390;51.186;6.830;2023-04-06T12:47:58;13.98;;;11.27;;
45676;SDS011;31390;51.186;6.830;2023-04-06T12:50:24;14.95;;;10.75;;
45676;SDS011;31390;51.186;6.830;2023-04-06T12:52:52;13.13;;;10.60;;
45676;SDS011;31390;51.186;6.830;2023-04-06T12:55:19;14.68;;;10.38;;
45676;SDS011;31390;51.186;6.830;2023-04-06T12:57:46;13.52;;;9.82;;
45676;SDS011;31390;51.186;6.830;2023-04-06T13:00:13;11.45;;;9.43;;
45676;SDS011;31390;51.186;6.830;2023-04-06T13:02:41;12.25;;;9.15;;
45676;SDS011;31390;51.186;6.830;2023-04-06T13:05:13;11.82;;;9.43;;
45676;SDS011;31390;51.186;6.830;2023-04-06T13:07:44;13.90;;;10.85;;
45676;SDS011;31390;51.186;6.830;2023-04-06T13:10:12;12.10;;;9.60;;
45676;SDS011;31390;51.186;6.830;2023-04-06T13:12:38;10.52;;;9.13;;
45676;SDS011;31390;51.186;6.830;2023-04-06T13:15:05;11.40;;;8.88;;
45676;SDS011;31390;51.186;6.830;2023-04-06T13:17:31;11.18;;;8.82;;
45676;SDS011;31390;51.186;6.830;2023-04-06T13:19:58;10.57;;;8.40;;
45676;SDS011;31390;51.186;6.830;2023-04-06T13:22:25;10.45;;;8.00;;
45676;SDS011;31390;51.186;6.830;2023-04-06T13:24:51;10.45;;;7.60;;
45676;SDS011;31390;51.186;6.830;2023-04-06T13:27:20;8.35;;;7.43;;
45676;SDS011;31390;51.186;6.830;2023-04-06T13:29:46;8.73;;;7.82;;
45676;SDS011;31390;51.186;6.830;2023-04-06T13:32:13;10.57;;;8.55;;
45676;SDS011;31390;51.186;6.830;2023-04-06T13:34:40;9.65;;;8.18;;
45676;SDS011;31390;51.186;6.830;2023-04-06T13:37:11;9.48;;;7.38;;
45676;SDS011;31390;51.186;6.830;2023-04-06T13:39:38;11.55;;;7.20;;
45676;SDS011;31390;51.186;6.830;2023-04-06T13:42:05;10.15;;;6.78;;
45676;SDS011;31390;51.186;6.830;2023-04-06T13:44:33;8.57;;;7.68;;
45676;SDS011;31390;51.186;6.830;2023-04-06T13:46:59;7.53;;;6.70;;
45676;SDS011;31390;51.186;6.830;2023-04-06T13:49:27;8.30;;;7.32;;
45676;SDS011;31390;51.186;6.830;2023-04-06T13:51:54;9.55;;;7.40;;
45676;SDS011;31390;51.186;6.830;2023-04-06T13:54:21;9.40;;;7.85;;
45676;SDS011;31390;51.186;6.830;2023-04-06T13:56:47;8.52;;;7.18;;
45676;SDS011;31390;51.186;6.830;2023-04-06T13:59:14;8.68;;;7.38;;
45676;SDS011;31390;51.186;6.830;2023-04-06T14:01:41;10.77;;;8.15;;
45676;SDS011;31390;51.186;6.830;2023-04-06T14:04:07;8.75;;;6.72;;
45676;SDS011;31390;51.186;6.830;2023-04-06T14:06:34;9.50;;;6.97;;
45676;SDS011;31390;51.186;6.830;2023-04-06T14:09:01;7.15;;;6.43;;
45676;SDS011;31390;51.186;6.830;2023-04-06T14:11:28;7.10;;;6.40;;
45676;SDS011;31390;51.186;6.830;2023-04-06T14:13:55;7.90;;;6.97;;
45676;SDS011;31390;51.186;6.830;2023-04-06T14:16:24;7.28;;;6.63;;
45676;SDS011;31390;51.186;6.830;2023-04-06T14:18:51;7.47;;;6.78;;
45676;SDS011;31390;51.186;6.830;2023-04-06T14:21:18;6.63;;;5.90;;
45676;SDS011;31390;51.186;6.830;2023-04-06T14:23:45;6.45;;;5.47;;
45676;SDS011;31390;51.186;6.830;2023-04-06T14:26:13;6.47;;;5.88;;
45676;SDS011;31390;51.186;6.830;2023-04-06T14:28:41;6.97;;;6.15;;
45676;SDS011;31390;51.186;6.830;2023-04-06T14:31:12;9.63;;;6.82;;
45676;SDS011;31390;51.186;6.830;2023-04-06T14:33:39;8.90;;;7.15;;
45676;SDS011;31390;51.186;6.830;2023-04-06T14:36:07;8.00;;;6.50;;